createdAt,value
2023-04-11T00:01:49.796Z,7.03
2023-04-11T00:04:20.592Z,7.67
2023-04-11T00:06:48.564Z,7.87
2023-04-11T00:09:16.814Z,7.10
2023-04-11T00:11:44.057Z,10.07
2023-04-11T00:14:12.534Z,7.03
2023-04-11T00:16:41.533Z,6.70
2023-04-11T00:19:09.381Z,7.50
2023-04-11T00:21:39.899Z,7.93
2023-04-11T00:24:10.250Z,8.57
2023-04-11T00:26:37.478Z,6.23
2023-04-11T00:29:04.662Z,7.20
2023-04-11T00:31:31.824Z,7.23
2023-04-11T00:33:59.038Z,7.83
2023-04-11T00:36:27.109Z,7.53
2023-04-11T00:38:55.188Z,6.90
2023-04-11T00:41:22.576Z,9.80
2023-04-11T00:43:49.903Z,10.33
2023-04-11T00:46:17.612Z,7.20
2023-04-11T00:48:45.417Z,8.47
2023-04-11T00:51:12.566Z,7.73
2023-04-11T00:53:39.712Z,7.93
2023-04-11T00:56:07.085Z,7.40
2023-04-11T00:58:37.477Z,7.20
2023-04-11T01:01:11.055Z,10.30
2023-04-11T01:03:41.438Z,6.27
2023-04-11T01:06:10.193Z,7.97
2023-04-11T01:08:38.005Z,7.73
2023-04-11T01:11:05.449Z,7.07
2023-04-11T01:13:33.658Z,7.43
2023-04-11T01:16:01.008Z,7.13
2023-04-11T01:18:28.418Z,7.03
2023-04-11T01:20:55.590Z,7.20
2023-04-11T01:23:26.100Z,7.57
2023-04-11T01:25:53.247Z,7.57
2023-04-11T01:28:21.008Z,8.97
2023-04-11T01:30:48.547Z,8.20
2023-04-11T01:33:16.545Z,8.13
2023-04-11T01:35:44.131Z,8.23
2023-04-11T01:38:11.737Z,9.37
2023-04-11T01:40:38.887Z,7.23
2023-04-11T01:43:08.229Z,9.03
2023-04-11T01:45:35.914Z,8.30
2023-04-11T01:48:07.270Z,7.17
2023-04-11T01:50:34.607Z,8.30
2023-04-11T01:53:01.794Z,9.17
2023-04-11T01:55:28.959Z,8.80
2023-04-11T01:57:56.273Z,7.70
2023-04-11T02:00:24.010Z,8.43
2023-04-11T02:02:51.303Z,8.23
2023-04-11T02:05:18.574Z,8.07
2023-04-11T02:07:45.728Z,8.10
2023-04-11T02:10:12.932Z,8.10
2023-04-11T02:12:40.189Z,8.03
2023-04-11T02:15:07.674Z,8.13
2023-04-11T02:17:34.942Z,6.73
2023-04-11T02:20:02.366Z,8.23
2023-04-11T02:22:29.496Z,8.30
2023-04-11T02:24:56.991Z,7.27
2023-04-11T02:27:24.116Z,9.00
2023-04-11T02:29:51.244Z,8.50
2023-04-11T02:32:18.413Z,8.77
2023-04-11T02:34:45.732Z,7.50
2023-04-11T02:37:14.107Z,7.30
2023-04-11T02:39:41.225Z,8.77
2023-04-11T02:42:08.351Z,9.23
2023-04-11T02:44:35.582Z,8.93
2023-04-11T02:47:02.911Z,8.83
2023-04-11T02:49:30.477Z,7.53
2023-04-11T02:51:57.600Z,8.67
2023-04-11T02:54:24.787Z,8.13
2023-04-11T02:56:52.752Z,9.07
2023-04-11T02:59:19.915Z,9.53
2023-04-11T03:01:47.142Z,8.10
2023-04-11T03:04:14.362Z,8.00
2023-04-11T03:06:41.528Z,7.90
2023-04-11T03:09:08.794Z,8.90
2023-04-11T03:11:35.942Z,8.40
2023-04-11T03:14:03.234Z,8.53
2023-04-11T03:16:30.367Z,8.63
2023-04-11T03:18:58.607Z,8.97
2023-04-11T03:21:26.425Z,8.67
2023-04-11T03:23:53.764Z,8.80
2023-04-11T03:26:20.932Z,8.60
2023-04-11T03:28:48.039Z,8.00
2023-04-11T03:31:15.219Z,9.03
2023-04-11T03:33:42.422Z,8.53
2023-04-11T03:36:09.759Z,7.90
2023-04-11T03:38:37.019Z,8.30
2023-04-11T03:41:04.307Z,8.63
2023-04-11T03:43:31.527Z,8.33
2023-04-11T03:45:58.639Z,13.07
2023-04-11T03:48:26.632Z,9.13
2023-04-11T03:50:53.931Z,8.23
2023-04-11T03:53:21.074Z,8.43
2023-04-11T03:55:52.821Z,9.70
2023-04-11T03:58:20.016Z,8.10
2023-04-11T04:00:47.171Z,9.63
2023-04-11T04:03:15.195Z,8.47
2023-04-11T04:05:42.470Z,8.43
2023-04-11T04:08:09.780Z,8.50
2023-04-11T04:10:36.895Z,7.47
2023-04-11T04:13:04.057Z,9.83
2023-04-11T04:15:31.195Z,9.37
2023-04-11T04:17:58.325Z,8.63
2023-04-11T04:20:25.748Z,8.97
2023-04-11T04:22:53.893Z,8.87
2023-04-11T04:25:21.137Z,8.73
2023-04-11T04:27:48.755Z,8.70
2023-04-11T04:30:16.132Z,8.43
2023-04-11T04:32:45.018Z,9.57
2023-04-11T04:35:16.682Z,9.20
2023-04-11T04:37:47.197Z,8.87
2023-04-11T04:40:15.795Z,10.97
2023-04-11T04:42:43.198Z,9.70
2023-04-11T04:45:11.329Z,9.97
2023-04-11T04:47:38.685Z,8.03
2023-04-11T04:50:06.068Z,10.70
2023-04-11T04:52:33.232Z,8.97
2023-04-11T04:55:01.564Z,8.90
2023-04-11T04:57:29.657Z,9.53
2023-04-11T04:59:59.113Z,9.27
2023-04-11T05:02:26.910Z,8.80
2023-04-11T05:04:54.879Z,10.23
2023-04-11T05:07:22.089Z,8.43
2023-04-11T05:09:49.248Z,8.63
2023-04-11T05:12:16.635Z,10.97
2023-04-11T05:14:43.804Z,11.80
2023-04-11T05:17:10.964Z,9.00
2023-04-11T05:19:38.101Z,10.33
2023-04-11T05:22:05.288Z,11.33
2023-04-11T05:24:32.412Z,9.90
2023-04-11T05:27:00.526Z,10.33
2023-04-11T05:29:29.962Z,9.60
2023-04-11T05:31:57.124Z,9.50
2023-04-11T05:34:24.274Z,10.93
2023-04-11T05:36:51.886Z,10.00
2023-04-11T05:39:19.099Z,10.03
2023-04-11T05:41:46.283Z,11.70
2023-04-11T05:44:13.448Z,10.53
2023-04-11T05:46:40.728Z,9.60
2023-04-11T05:49:08.034Z,10.20
2023-04-11T05:51:35.380Z,10.53
2023-04-11T05:54:02.506Z,10.97
2023-04-11T05:56:29.623Z,9.80
2023-04-11T05:58:56.871Z,10.30
2023-04-11T06:01:26.127Z,10.97
2023-04-11T06:03:53.514Z,10.40
2023-04-11T06:06:20.797Z,10.53
2023-04-11T06:08:48.030Z,10.93
2023-04-11T06:11:16.009Z,10.87
2023-04-11T06:13:43.150Z,11.30
2023-04-11T06:16:10.669Z,12.87
2023-04-11T06:18:37.831Z,12.23
2023-04-11T06:21:05.739Z,10.73
2023-04-11T06:23:32.865Z,11.30
2023-04-11T06:26:00.001Z,13.37
2023-04-11T06:28:27.443Z,10.40
2023-04-11T06:30:54.652Z,11.80
2023-04-11T06:33:21.885Z,15.50
2023-04-11T06:35:49.054Z,13.23
2023-04-11T06:38:16.241Z,13.57
2023-04-11T06:40:43.505Z,11.77
2023-04-11T06:43:11.227Z,14.07
2023-04-11T06:45:38.392Z,13.20
2023-04-11T06:48:05.755Z,14.23
2023-04-11T06:50:32.982Z,12.00
2023-04-11T06:53:00.291Z,12.70
2023-04-11T06:55:27.517Z,12.80
2023-04-11T06:57:54.808Z,12.30
2023-04-11T07:00:22.058Z,11.73
2023-04-11T07:02:49.594Z,13.03
2023-04-11T07:05:17.142Z,13.60
2023-04-11T07:07:44.308Z,12.73
2023-04-11T07:10:11.522Z,12.80
2023-04-11T07:12:38.685Z,12.23
2023-04-11T07:15:06.193Z,13.80
2023-04-11T07:17:33.389Z,14.50
2023-04-11T07:20:00.670Z,16.10
2023-04-11T07:22:29.310Z,14.20
2023-04-11T07:24:57.412Z,13.87
2023-04-11T07:27:24.599Z,14.00
2023-04-11T07:29:51.762Z,15.10
2023-04-11T07:32:18.986Z,13.37
2023-04-11T07:34:46.143Z,12.50
2023-04-11T07:37:13.317Z,13.63
2023-04-11T07:39:40.796Z,14.90
2023-04-11T07:42:08.256Z,13.47
2023-04-11T07:44:35.386Z,16.67
2023-04-11T07:47:02.535Z,14.63
2023-04-11T07:49:29.981Z,15.80
2023-04-11T07:51:57.159Z,14.13
2023-04-11T07:54:25.281Z,14.03
2023-04-11T07:56:52.571Z,15.10
2023-04-11T07:59:19.802Z,14.87
2023-04-11T08:01:47.064Z,13.70
2023-04-11T08:04:14.531Z,15.53
2023-04-11T08:06:43.471Z,15.03
2023-04-11T08:09:10.942Z,14.53
2023-04-11T08:11:39.436Z,18.23
2023-04-11T08:14:06.603Z,16.17
2023-04-11T08:16:36.017Z,14.93
2023-04-11T08:19:03.222Z,15.43
2023-04-11T08:21:31.239Z,15.40
2023-04-11T08:23:58.772Z,16.00
2023-04-11T08:26:26.027Z,15.80
2023-04-11T08:28:53.236Z,16.40
2023-04-11T08:31:20.499Z,15.43
2023-04-11T08:33:47.996Z,16.60
2023-04-11T08:36:15.429Z,16.47
2023-04-11T08:38:42.660Z,16.50
2023-04-11T08:41:09.857Z,17.07
2023-04-11T08:43:38.870Z,16.77
2023-04-11T08:46:08.011Z,17.80
2023-04-11T08:48:35.667Z,17.40
2023-04-11T08:51:02.825Z,16.20
2023-04-11T08:53:30.479Z,16.73
2023-04-11T08:55:58.816Z,16.93
2023-04-11T08:58:26.670Z,16.73
2023-04-11T09:00:53.842Z,16.73
2023-04-11T09:03:21.133Z,16.77
2023-04-11T09:05:48.510Z,16.90
2023-04-11T09:08:16.562Z,19.03
2023-04-11T09:10:48.017Z,17.97
2023-04-11T09:13:24.602Z,17.70
2023-04-11T09:16:09.387Z,16.40
2023-04-11T09:18:36.654Z,16.87
2023-04-11T09:21:11.466Z,18.07
2023-04-11T09:23:39.386Z,17.93
2023-04-11T09:26:10.423Z,18.17
2023-04-11T09:28:42.961Z,17.87
2023-04-11T09:31:12.954Z,20.67
2023-04-11T09:33:40.863Z,18.47
2023-04-11T09:36:21.457Z,19.27
2023-04-11T09:38:48.677Z,19.83
2023-04-11T09:41:16.220Z,16.80
2023-04-11T09:43:53.695Z,18.07
2023-04-11T09:46:21.603Z,16.80
2023-04-11T09:48:54.980Z,17.20
2023-04-11T09:51:32.314Z,17.33
2023-04-11T09:54:04.104Z,17.07
2023-04-11T09:56:34.081Z,15.53
2023-04-11T09:59:01.717Z,16.67
2023-04-11T10:01:28.918Z,18.53
2023-04-11T10:03:57.362Z,16.43
2023-04-11T10:06:33.676Z,15.70
2023-04-11T10:09:08.328Z,15.13
2023-04-11T10:11:35.995Z,16.07
2023-04-11T10:14:03.163Z,17.37
2023-04-11T10:16:33.858Z,15.67
2023-04-11T10:19:04.553Z,14.37
2023-04-11T10:21:35.084Z,14.63
2023-04-11T10:24:17.184Z,15.17
2023-04-11T10:27:00.413Z,16.47
2023-04-11T10:29:33.020Z,14.70
2023-04-11T10:32:32.532Z,14.53
2023-04-11T10:35:02.496Z,14.43
2023-04-11T10:37:33.464Z,17.03
2023-04-11T10:40:00.915Z,18.40
2023-04-11T10:42:28.765Z,16.30
2023-04-11T10:45:14.626Z,15.20
2023-04-11T10:47:41.996Z,17.17
2023-04-11T10:50:24.619Z,17.20
2023-04-11T10:52:51.899Z,18.20
2023-04-11T10:55:19.717Z,16.03
2023-04-11T10:58:08.928Z,16.73
2023-04-11T11:00:54.526Z,15.20
2023-04-11T11:03:25.703Z,16.40
2023-04-11T11:06:06.279Z,14.93
2023-04-11T11:08:38.104Z,16.10
2023-04-11T11:11:08.861Z,17.17
2023-04-11T11:13:42.312Z,13.73
2023-04-11T11:16:10.029Z,12.87
2023-04-11T11:18:37.810Z,15.57
2023-04-11T11:21:07.405Z,13.43
2023-04-11T11:23:36.759Z,14.47
2023-04-11T11:26:04.003Z,14.40
2023-04-11T11:28:31.239Z,13.63
2023-04-11T11:30:58.633Z,13.07
2023-04-11T11:33:26.798Z,13.43
2023-04-11T11:35:58.237Z,13.30
2023-04-11T11:38:30.399Z,10.83
2023-04-11T11:40:58.542Z,11.53
2023-04-11T11:43:27.486Z,12.70
2023-04-11T11:46:08.796Z,12.43
2023-04-11T11:48:36.302Z,11.17
2023-04-11T11:51:03.499Z,12.37
2023-04-11T11:53:30.679Z,11.50
2023-04-11T11:55:57.894Z,12.07
2023-04-11T11:58:25.200Z,10.00
2023-04-11T12:00:52.859Z,10.73
2023-04-11T12:03:24.692Z,10.07
2023-04-11T12:05:52.898Z,10.07
2023-04-11T12:08:23.513Z,11.07
2023-04-11T12:10:51.574Z,9.93
2023-04-11T12:13:20.611Z,12.07
2023-04-11T12:15:58.222Z,11.20
2023-04-11T12:18:26.066Z,9.50
2023-04-11T12:20:53.541Z,10.10
2023-04-11T12:23:21.284Z,10.07
2023-04-11T12:25:48.655Z,10.70
2023-04-11T12:28:16.982Z,10.20
2023-04-11T12:30:44.296Z,11.03
2023-04-11T12:33:11.459Z,10.23
2023-04-11T12:35:38.605Z,11.13
2023-04-11T12:38:07.707Z,11.87
2023-04-11T12:40:34.886Z,11.37
2023-04-11T12:43:02.080Z,11.90
2023-04-11T12:45:29.272Z,10.97
2023-04-11T12:47:56.542Z,12.07
2023-04-11T12:50:24.379Z,12.70
2023-04-11T12:52:51.895Z,13.60
2023-04-11T12:55:19.176Z,13.37
2023-04-11T12:57:46.428Z,16.43
2023-04-11T13:00:14.045Z,14.83
2023-04-11T13:02:44.671Z,15.63
2023-04-11T13:05:15.062Z,15.37
2023-04-11T13:07:44.822Z,17.83
2023-04-11T13:10:13.797Z,15.10
2023-04-11T13:12:43.788Z,13.63
2023-04-11T13:15:15.681Z,17.23
2023-04-11T13:17:43.392Z,14.13
2023-04-11T13:20:11.181Z,13.00
2023-04-11T13:22:39.030Z,11.83
2023-04-11T13:25:06.939Z,12.93
2023-04-11T13:27:34.276Z,12.00
2023-04-11T13:30:01.488Z,11.17
2023-04-11T13:32:28.731Z,9.97
2023-04-11T13:34:55.957Z,11.77
2023-04-11T13:37:23.147Z,10.33
2023-04-11T13:39:50.322Z,11.50
2023-04-11T13:42:17.446Z,11.00
2023-04-11T13:44:44.605Z,10.50
2023-04-11T13:47:11.724Z,11.13
2023-04-11T13:49:38.856Z,10.17
2023-04-11T13:52:06.024Z,11.93
2023-04-11T13:54:33.214Z,9.53
2023-04-11T13:57:00.834Z,8.80
2023-04-11T13:59:28.152Z,7.93
2023-04-11T14:01:55.323Z,9.87
2023-04-11T14:04:22.645Z,9.93
2023-04-11T14:06:50.001Z,9.07
2023-04-11T14:09:17.637Z,9.50
2023-04-11T14:11:44.821Z,10.20
2023-04-11T14:14:11.961Z,9.90
2023-04-11T14:16:39.145Z,9.60
2023-04-11T14:19:06.325Z,8.53
2023-04-11T14:21:33.508Z,11.00
2023-04-11T14:24:00.731Z,11.63
2023-04-11T14:26:27.982Z,9.80
2023-04-11T14:28:55.156Z,9.10
2023-04-11T14:31:22.647Z,10.20
2023-04-11T14:33:50.292Z,10.00
2023-04-11T14:36:17.423Z,9.33
2023-04-11T14:38:44.576Z,11.23
2023-04-11T14:41:11.709Z,8.83
2023-04-11T14:43:38.863Z,10.13
2023-04-11T14:46:06.115Z,8.60
2023-04-11T14:48:33.349Z,10.03
2023-04-11T14:51:03.171Z,11.10
2023-04-11T14:53:30.458Z,11.17
2023-04-11T14:55:57.640Z,9.67
2023-04-11T14:58:24.783Z,11.07
2023-04-11T15:00:52.160Z,8.63
2023-04-11T15:03:20.181Z,9.53
2023-04-11T15:05:47.514Z,8.07
2023-04-11T15:08:14.708Z,13.57
2023-04-11T15:10:41.861Z,8.77
2023-04-11T15:13:11.804Z,8.60
2023-04-11T15:15:39.066Z,9.20
2023-04-11T15:18:19.249Z,7.83
2023-04-11T15:20:46.473Z,8.07
2023-04-11T15:23:13.619Z,9.13
2023-04-11T15:25:40.801Z,6.97
2023-04-11T15:28:08.015Z,9.23
2023-04-11T15:30:35.666Z,7.10
2023-04-11T15:33:02.898Z,7.67
2023-04-11T15:35:30.307Z,8.87
2023-04-11T15:38:00.453Z,6.10
2023-04-11T15:40:27.584Z,6.13
2023-04-11T15:42:54.761Z,5.37
2023-04-11T15:45:22.089Z,6.07
2023-04-11T15:47:49.257Z,6.67
2023-04-11T15:50:17.513Z,7.97
2023-04-11T15:52:44.859Z,5.40
2023-04-11T15:55:11.995Z,6.00
2023-04-11T15:57:39.146Z,4.73
2023-04-11T16:00:09.916Z,5.93
2023-04-11T16:02:37.529Z,5.70
2023-04-11T16:05:05.002Z,5.97
2023-04-11T16:07:32.268Z,6.70
2023-04-11T16:09:59.419Z,7.20
2023-04-11T16:12:26.569Z,7.20
2023-04-11T16:14:53.688Z,4.83
2023-04-11T16:17:20.947Z,5.77
2023-04-11T16:19:48.454Z,5.50
2023-04-11T16:22:15.637Z,5.90
2023-04-11T16:24:42.774Z,5.77
2023-04-11T16:27:09.958Z,5.90
2023-04-11T16:29:37.116Z,5.40
2023-04-11T16:32:04.277Z,6.13
2023-04-11T16:34:31.618Z,5.90
2023-04-11T16:36:58.796Z,6.90
2023-04-11T16:39:26.012Z,5.90
2023-04-11T16:41:54.391Z,6.70
2023-04-11T16:44:23.040Z,6.10
2023-04-11T16:46:50.293Z,2.83
2023-04-11T16:49:19.066Z,4.07
2023-04-11T16:51:46.370Z,5.57
2023-04-11T16:54:13.790Z,4.40
2023-04-11T16:56:40.922Z,5.47
2023-04-11T16:59:09.407Z,4.43
2023-04-11T17:01:36.673Z,2.77
2023-04-11T17:04:04.042Z,4.10
2023-04-11T17:06:32.130Z,2.73
2023-04-11T17:08:59.363Z,4.07
2023-04-11T17:11:26.811Z,5.13
2023-04-11T17:13:55.852Z,3.80
2023-04-11T17:16:23.652Z,4.73
2023-04-11T17:18:51.252Z,3.97
2023-04-11T17:21:18.520Z,6.03
2023-04-11T17:23:46.984Z,4.90
2023-04-11T17:26:14.172Z,4.83
2023-04-11T17:28:42.252Z,3.20
2023-04-11T17:31:13.405Z,4.47
2023-04-11T17:33:40.830Z,3.57
2023-04-11T17:36:08.746Z,4.30
2023-04-11T17:38:37.745Z,4.27
2023-04-11T17:41:13.791Z,3.23
2023-04-11T17:43:42.439Z,6.07
2023-04-11T17:46:09.793Z,4.57
2023-04-11T17:48:37.177Z,5.10
2023-04-11T17:51:07.778Z,5.20
2023-04-11T17:53:34.995Z,6.10
2023-04-11T17:56:06.073Z,4.43
2023-04-11T17:58:33.688Z,3.97
2023-04-11T18:01:00.929Z,3.97
2023-04-11T18:03:28.583Z,3.60
2023-04-11T18:05:56.623Z,4.47
2023-04-11T18:08:39.213Z,5.80
2023-04-11T18:11:13.714Z,6.07
2023-04-11T18:13:43.214Z,3.30
2023-04-11T18:16:11.347Z,6.63
2023-04-11T18:18:38.662Z,4.70
2023-04-11T18:21:07.862Z,6.33
2023-04-11T18:23:35.564Z,4.90
2023-04-11T18:26:02.798Z,6.20
2023-04-11T18:28:30.125Z,7.13
2023-04-11T18:30:57.466Z,6.63
2023-04-11T18:33:24.764Z,4.83
2023-04-11T18:35:51.960Z,4.03
2023-04-11T18:38:19.367Z,6.00
2023-04-11T18:40:46.888Z,6.23
2023-04-11T18:43:15.523Z,5.53
2023-04-11T18:45:45.063Z,7.10
2023-04-11T18:48:12.667Z,7.43
2023-04-11T18:50:42.870Z,6.93
2023-04-11T18:53:13.043Z,6.77
2023-04-11T18:55:41.103Z,6.17
2023-04-11T18:58:09.958Z,7.97
2023-04-11T19:00:39.199Z,8.77
2023-04-11T19:03:14.755Z,11.20
2023-04-11T19:05:42.529Z,9.90
2023-04-11T19:08:09.790Z,8.33
2023-04-11T19:10:36.966Z,6.27
2023-04-11T19:13:04.130Z,7.13
2023-04-11T19:15:31.290Z,6.73
2023-04-11T19:17:58.469Z,5.97
2023-04-11T19:20:26.758Z,5.13
2023-04-11T19:22:57.056Z,6.77
2023-04-11T19:25:24.385Z,5.87
2023-04-11T19:27:51.722Z,5.27
2023-04-11T19:30:18.841Z,7.10
2023-04-11T19:32:47.489Z,6.43
2023-04-11T19:35:15.066Z,4.97
2023-04-11T19:37:42.606Z,5.83
2023-04-11T19:40:16.548Z,8.47
2023-04-11T19:42:44.803Z,5.13
2023-04-11T19:45:12.299Z,7.27
2023-04-11T19:47:40.727Z,6.63
2023-04-11T19:50:11.623Z,6.00
2023-04-11T19:52:38.898Z,8.17
2023-04-11T19:55:06.318Z,7.40
2023-04-11T19:57:33.567Z,5.27
2023-04-11T20:00:00.734Z,4.03
2023-04-11T20:02:27.974Z,7.77
2023-04-11T20:04:56.221Z,5.90
2023-04-11T20:07:23.821Z,6.00
2023-04-11T20:09:51.691Z,5.43
2023-04-11T20:12:19.157Z,5.30
2023-04-11T20:14:46.325Z,5.83
2023-04-11T20:17:13.488Z,7.50
2023-04-11T20:19:41.751Z,7.40
2023-04-11T20:22:11.258Z,8.33
2023-04-11T20:24:38.380Z,6.07
2023-04-11T20:27:05.592Z,7.63
2023-04-11T20:29:33.000Z,7.73
2023-04-11T20:32:00.275Z,7.33
2023-04-11T20:34:27.406Z,8.80
2023-04-11T20:36:55.891Z,6.53
2023-04-11T20:39:23.146Z,7.27
2023-04-11T20:41:52.310Z,6.47
2023-04-11T20:44:21.157Z,6.93
2023-04-11T20:46:48.356Z,8.30
2023-04-11T20:49:18.190Z,9.13
2023-04-11T20:51:45.530Z,8.20
2023-04-11T20:54:12.734Z,8.97
2023-04-11T20:56:39.883Z,8.30
2023-04-11T20:59:09.083Z,7.87
2023-04-11T21:01:36.669Z,7.37
2023-04-11T21:04:04.242Z,7.30
2023-04-11T21:06:34.452Z,8.53
2023-04-11T21:09:03.628Z,6.43
2023-04-11T21:11:30.892Z,8.10
2023-04-11T21:13:58.355Z,10.43
2023-04-11T21:16:25.959Z,7.10
2023-04-11T21:18:53.158Z,9.40
2023-04-11T21:21:20.578Z,9.50
2023-04-11T21:23:47.772Z,7.70
2023-04-11T21:26:15.033Z,7.17
2023-04-11T21:28:42.178Z,8.70
2023-04-11T21:31:09.371Z,8.93
2023-04-11T21:33:36.528Z,7.47
2023-04-11T21:36:03.722Z,6.90
2023-04-11T21:38:30.976Z,8.37
2023-04-11T21:40:58.169Z,7.03
2023-04-11T21:43:25.338Z,6.93
2023-04-11T21:45:52.490Z,8.77
2023-04-11T21:48:19.641Z,7.07
2023-04-11T21:50:46.875Z,8.13
2023-04-11T21:53:14.051Z,7.57
2023-04-11T21:55:47.351Z,7.53
2023-04-11T21:58:26.163Z,7.17
2023-04-11T22:00:56.088Z,6.40
2023-04-11T22:03:24.002Z,6.90
2023-04-11T22:05:52.255Z,9.07
2023-04-11T22:08:20.135Z,6.77
2023-04-11T22:10:48.469Z,9.17
2023-04-11T22:13:16.676Z,7.10
2023-04-11T22:15:43.891Z,11.93
2023-04-11T22:18:11.097Z,6.90
2023-04-11T22:20:43.657Z,9.00
2023-04-11T22:23:13.177Z,9.30
2023-04-11T22:25:44.059Z,6.07
2023-04-11T22:28:13.636Z,7.13
2023-04-11T22:30:41.275Z,8.03
2023-04-11T22:33:08.910Z,10.13
2023-04-11T22:35:36.114Z,9.13
2023-04-11T22:38:03.896Z,9.83
2023-04-11T22:40:31.160Z,11.10
2023-04-11T22:42:58.340Z,6.60
2023-04-11T22:45:25.572Z,7.27
2023-04-11T22:47:54.189Z,7.23
2023-04-11T22:50:21.786Z,8.37
2023-04-11T22:52:49.962Z,8.20
2023-04-11T22:55:18.633Z,7.47
2023-04-11T22:57:45.933Z,9.13
2023-04-11T23:00:16.283Z,8.27
2023-04-11T23:02:44.088Z,8.33
2023-04-11T23:05:11.391Z,10.10
2023-04-11T23:07:38.759Z,8.37
2023-04-11T23:10:13.905Z,8.30
2023-04-11T23:12:41.682Z,9.37
2023-04-11T23:15:09.710Z,8.50
2023-04-11T23:17:40.039Z,10.00
2023-04-11T23:20:13.832Z,9.60
2023-04-11T23:22:42.604Z,10.77
2023-04-11T23:25:15.204Z,11.30
2023-04-11T23:27:43.452Z,11.77
2023-04-11T23:30:14.815Z,10.57
2023-04-11T23:32:42.801Z,12.07
2023-04-11T23:35:10.684Z,12.03
2023-04-11T23:37:37.922Z,13.83
2023-04-11T23:40:10.400Z,15.33
2023-04-11T23:42:38.398Z,13.13
2023-04-11T23:45:06.639Z,13.03
2023-04-11T23:47:34.273Z,14.53
2023-04-11T23:50:02.723Z,11.97
2023-04-11T23:52:30.370Z,12.43
2023-04-11T23:54:58.455Z,12.87
2023-04-11T23:57:25.587Z,12.60
2023-04-11T23:59:52.707Z,11.07
